createdAt,value
2018-03-25T00:01:43.815Z,99.90
2018-03-25T00:04:21.962Z,99.90
2018-03-25T00:06:49.575Z,99.90
2018-03-25T00:09:25.884Z,99.90
2018-03-25T00:11:54.343Z,99.90
2018-03-25T00:14:29.865Z,99.90
2018-03-25T00:17:05.327Z,99.90
2018-03-25T00:19:32.290Z,99.90
2018-03-25T00:22:06.624Z,99.90
2018-03-25T00:24:46.294Z,99.90
2018-03-25T00:27:14.006Z,99.90
2018-03-25T00:29:40.936Z,99.90
2018-03-25T00:32:07.879Z,99.90
2018-03-25T00:34:34.767Z,99.90
2018-03-25T00:37:01.713Z,99.90
2018-03-25T00:39:40.252Z,99.90
2018-03-25T00:42:09.616Z,99.90
2018-03-25T00:44:48.180Z,99.90
2018-03-25T00:47:15.917Z,99.90
2018-03-25T00:49:42.809Z,99.90
2018-03-25T00:52:21.507Z,99.90
2018-03-25T00:54:49.007Z,99.90
2018-03-25T00:57:27.755Z,99.90
2018-03-25T01:00:05.593Z,99.90
2018-03-25T01:02:43.509Z,99.90
2018-03-25T01:05:13.746Z,99.90
2018-03-25T01:07:47.248Z,99.90
2018-03-25T01:10:24.496Z,99.90
2018-03-25T01:13:04.747Z,99.90
2018-03-25T01:15:52.681Z,99.90
2018-03-25T01:18:32.030Z,99.90
2018-03-25T01:20:59.604Z,99.90
2018-03-25T01:23:26.563Z,99.90
2018-03-25T01:25:53.467Z,99.90
2018-03-25T01:28:20.399Z,99.90
2018-03-25T01:30:47.338Z,99.90
2018-03-25T01:33:14.207Z,99.90
2018-03-25T01:35:41.144Z,99.90
2018-03-25T01:38:08.073Z,99.90
2018-03-25T01:40:35.045Z,99.90
2018-03-25T01:43:01.973Z,99.90
2018-03-25T01:45:28.930Z,99.90
2018-03-25T01:47:55.876Z,99.90
2018-03-25T01:50:22.810Z,99.90
2018-03-25T01:52:49.683Z,99.90
2018-03-25T01:55:16.668Z,99.90
2018-03-25T01:57:43.570Z,99.90
2018-03-25T02:00:10.645Z,99.90
2018-03-25T02:02:37.578Z,99.90
2018-03-25T02:05:05.249Z,99.90
2018-03-25T02:07:32.200Z,99.90
2018-03-25T02:09:59.827Z,99.90
2018-03-25T02:12:26.757Z,99.90
2018-03-25T02:14:53.690Z,99.90
2018-03-25T02:17:20.653Z,99.90
2018-03-25T02:19:47.544Z,99.90
2018-03-25T02:22:15.239Z,99.90
2018-03-25T02:24:42.114Z,99.90
2018-03-25T02:27:09.060Z,99.90
2018-03-25T02:29:35.952Z,99.90
2018-03-25T02:32:03.000Z,99.90
2018-03-25T02:34:29.919Z,99.90
2018-03-25T02:36:56.860Z,99.90
2018-03-25T02:39:23.800Z,99.90
2018-03-25T02:41:50.671Z,99.90
2018-03-25T02:44:18.424Z,99.90
2018-03-25T02:46:45.351Z,99.90
2018-03-25T02:49:12.287Z,99.90
2018-03-25T02:51:39.248Z,99.90
2018-03-25T02:54:06.133Z,99.90
2018-03-25T02:56:33.040Z,99.90
2018-03-25T02:58:59.931Z,99.90
2018-03-25T03:01:26.902Z,99.90
2018-03-25T03:03:53.876Z,99.90
2018-03-25T03:06:20.799Z,99.90
2018-03-25T03:08:47.721Z,99.90
2018-03-25T03:11:14.613Z,99.90
2018-03-25T03:13:41.558Z,99.90
2018-03-25T03:16:08.488Z,99.90
2018-03-25T03:18:35.416Z,99.90
2018-03-25T03:21:02.346Z,99.90
2018-03-25T03:23:29.305Z,99.90
2018-03-25T03:25:56.160Z,99.90
2018-03-25T03:28:23.093Z,99.90
2018-03-25T03:30:49.954Z,99.90
2018-03-25T03:33:16.916Z,99.90
2018-03-25T03:35:43.817Z,99.90
2018-03-25T03:38:10.677Z,99.90
2018-03-25T03:40:37.608Z,99.90
2018-03-25T03:43:04.478Z,99.90
2018-03-25T03:45:31.529Z,99.90
2018-03-25T03:47:58.425Z,99.90
2018-03-25T03:50:26.126Z,99.90
2018-03-25T03:52:53.000Z,99.90
2018-03-25T03:55:19.886Z,99.90
2018-03-25T03:57:47.570Z,99.90
2018-03-25T04:00:14.500Z,99.90
2018-03-25T04:02:41.437Z,99.90
2018-03-25T04:05:09.118Z,99.90
2018-03-25T04:07:36.051Z,99.90
2018-03-25T04:10:03.100Z,99.90
2018-03-25T04:12:30.818Z,99.90
2018-03-25T04:14:57.692Z,99.90
2018-03-25T04:17:25.319Z,99.90
2018-03-25T04:19:52.276Z,99.90
2018-03-25T04:22:19.219Z,99.90
2018-03-25T04:24:46.101Z,99.90
2018-03-25T04:27:28.956Z,99.90
2018-03-25T04:29:56.543Z,99.90
2018-03-25T04:32:23.498Z,99.90
2018-03-25T04:34:50.364Z,99.90
2018-03-25T04:37:18.092Z,99.90
2018-03-25T04:39:44.959Z,99.90
2018-03-25T04:42:11.905Z,99.90
2018-03-25T04:44:38.880Z,99.90
2018-03-25T04:49:35.479Z,99.90
2018-03-25T04:52:03.524Z,99.90
2018-03-25T04:54:30.471Z,99.90
2018-03-25T04:56:57.406Z,99.90
2018-03-25T04:59:24.344Z,99.90
2018-03-25T05:01:51.240Z,99.90
2018-03-25T05:04:18.203Z,99.90
2018-03-25T05:06:45.101Z,99.90
2018-03-25T05:09:11.977Z,99.90
2018-03-25T05:11:38.903Z,99.90
2018-03-25T05:14:05.778Z,99.90
2018-03-25T05:16:32.747Z,99.90
2018-03-25T05:18:59.710Z,99.90
2018-03-25T05:21:26.590Z,99.90
2018-03-25T05:23:53.519Z,99.90
2018-03-25T05:26:20.446Z,99.90
2018-03-25T05:28:47.429Z,99.90
2018-03-25T05:31:14.320Z,99.90
2018-03-25T05:33:41.260Z,99.90
2018-03-25T05:36:08.162Z,99.90
2018-03-25T05:38:35.108Z,99.90
2018-03-25T05:41:01.996Z,99.90
2018-03-25T05:43:28.939Z,99.90
2018-03-25T05:45:55.886Z,99.90
2018-03-25T05:48:22.806Z,99.90
2018-03-25T05:50:49.747Z,99.90
2018-03-25T05:53:16.615Z,99.90
2018-03-25T05:55:43.532Z,99.90
2018-03-25T05:58:10.427Z,99.90
2018-03-25T06:00:37.364Z,99.90
2018-03-25T06:03:04.262Z,99.90
2018-03-25T06:05:31.256Z,99.90
2018-03-25T06:07:58.146Z,99.90
2018-03-25T06:10:25.138Z,99.90
2018-03-25T06:12:52.023Z,99.90
2018-03-25T06:15:18.915Z,99.90
2018-03-25T06:17:45.861Z,99.90
2018-03-25T06:20:12.731Z,99.90
2018-03-25T06:22:39.645Z,99.90
2018-03-25T06:25:06.536Z,99.90
2018-03-25T06:27:33.490Z,99.90
2018-03-25T06:30:00.437Z,99.90
2018-03-25T06:32:27.303Z,99.90
2018-03-25T06:34:54.258Z,99.90
2018-03-25T06:37:21.161Z,99.90
2018-03-25T06:39:48.124Z,99.90
2018-03-25T06:42:15.036Z,99.90
2018-03-25T06:44:41.997Z,99.90
2018-03-25T06:47:09.676Z,99.90
2018-03-25T06:49:36.623Z,99.90
2018-03-25T06:52:04.305Z,99.90
2018-03-25T06:54:31.241Z,99.90
2018-03-25T06:56:58.105Z,99.90
2018-03-25T06:59:25.076Z,99.90
2018-03-25T07:01:51.942Z,99.90
2018-03-25T07:04:18.868Z,99.90
2018-03-25T07:06:45.803Z,99.90
2018-03-25T07:09:12.762Z,99.90
2018-03-25T07:11:40.475Z,99.90
2018-03-25T07:14:07.345Z,99.90
2018-03-25T07:16:34.264Z,99.90
2018-03-25T07:19:01.196Z,99.90
2018-03-25T07:21:28.969Z,99.90
2018-03-25T07:23:56.604Z,99.90
2018-03-25T07:26:23.544Z,99.90
2018-03-25T07:28:50.452Z,98.70
2018-03-25T07:31:17.392Z,96.70
2018-03-25T07:33:44.677Z,96.60
2018-03-25T07:36:11.549Z,94.40
2018-03-25T07:38:45.301Z,92.50
2018-03-25T07:41:20.705Z,87.30
2018-03-25T07:43:49.348Z,80.00
2018-03-25T07:46:16.509Z,73.50
2018-03-25T07:48:51.393Z,74.10
2018-03-25T07:51:21.276Z,70.70
2018-03-25T07:53:56.067Z,72.90
2018-03-25T07:56:35.052Z,67.90
2018-03-25T07:59:10.894Z,67.80
2018-03-25T08:01:42.181Z,68.30
2018-03-25T08:04:16.114Z,61.90
2018-03-25T08:06:56.497Z,58.40
2018-03-25T08:09:38.846Z,57.60
2018-03-25T08:12:06.610Z,53.70
2018-03-25T08:14:34.328Z,50.10
2018-03-25T08:17:02.623Z,46.30
2018-03-25T08:19:42.093Z,47.20
2018-03-25T08:22:10.612Z,42.90
2018-03-25T08:24:48.153Z,41.80
2018-03-25T08:27:26.015Z,41.20
2018-03-25T08:29:53.721Z,37.40
2018-03-25T08:32:24.419Z,36.50
2018-03-25T08:35:03.812Z,35.00
2018-03-25T08:37:31.893Z,36.10
2018-03-25T08:40:05.591Z,35.00
2018-03-25T08:42:42.677Z,34.10
2018-03-25T08:45:20.123Z,34.20
2018-03-25T08:47:55.669Z,31.50
2018-03-25T08:50:23.268Z,34.70
2018-03-25T08:52:52.242Z,33.90
2018-03-25T08:55:22.400Z,30.70
2018-03-25T09:00:31.533Z,33.20
2018-03-25T09:03:11.003Z,32.30
2018-03-25T09:05:40.253Z,30.70
2018-03-25T09:08:18.758Z,30.60
2018-03-25T09:10:46.557Z,31.30
2018-03-25T09:13:22.900Z,32.60
2018-03-25T09:15:55.266Z,33.10
2018-03-25T09:18:25.653Z,31.20
2018-03-25T09:23:49.835Z,31.50
2018-03-25T09:26:29.988Z,31.20
2018-03-25T09:29:19.335Z,33.50
2018-03-25T09:34:51.740Z,34.80
2018-03-25T09:37:41.308Z,33.70
2018-03-25T09:40:28.931Z,33.60
2018-03-25T09:43:15.694Z,33.00
2018-03-25T09:46:00.189Z,33.30
2018-03-25T09:48:49.273Z,33.30
2018-03-25T09:51:18.412Z,35.20
2018-03-25T09:53:47.418Z,36.80
2018-03-25T09:56:15.237Z,40.90
2018-03-25T09:58:42.379Z,41.00
2018-03-25T10:01:16.534Z,41.80
2018-03-25T10:03:45.078Z,42.50
2018-03-25T10:06:12.142Z,42.50
2018-03-25T10:08:39.270Z,43.40
2018-03-25T10:11:06.234Z,43.50
2018-03-25T10:13:33.244Z,43.50
2018-03-25T10:16:03.023Z,44.60
2018-03-25T10:18:30.039Z,44.10
2018-03-25T10:20:56.980Z,44.70
2018-03-25T10:23:25.155Z,46.70
2018-03-25T10:26:11.781Z,45.30
2018-03-25T10:28:40.707Z,46.80
2018-03-25T10:31:07.658Z,47.60
2018-03-25T10:33:42.030Z,47.30
2018-03-25T10:36:19.833Z,47.20
2018-03-25T10:38:50.384Z,47.90
2018-03-25T10:41:17.491Z,47.60
2018-03-25T10:43:44.881Z,49.10
2018-03-25T10:46:22.816Z,46.70
2018-03-25T10:49:01.392Z,50.60
2018-03-25T10:51:43.954Z,48.70
2018-03-25T10:54:15.309Z,51.00
2018-03-25T10:56:47.141Z,51.00
2018-03-25T10:59:14.872Z,49.60
2018-03-25T11:01:44.434Z,49.50
2018-03-25T11:04:22.186Z,50.50
2018-03-25T11:06:52.153Z,48.30
2018-03-25T11:09:26.916Z,45.50
2018-03-25T11:12:00.630Z,48.40
2018-03-25T11:14:40.424Z,47.20
2018-03-25T11:17:10.147Z,43.20
2018-03-25T11:19:37.041Z,43.20
2018-03-25T11:22:08.536Z,46.50
2018-03-25T11:24:48.174Z,45.60
2018-03-25T11:29:55.894Z,48.60
2018-03-25T11:32:23.251Z,44.90
2018-03-25T11:34:50.735Z,47.90
2018-03-25T11:37:25.062Z,44.70
2018-03-25T11:39:52.677Z,44.20
2018-03-25T11:42:26.931Z,44.70
2018-03-25T11:45:13.583Z,46.40
2018-03-25T11:50:50.564Z,44.40
2018-03-25T11:53:38.946Z,44.40
2018-03-25T11:56:24.184Z,44.00
2018-03-25T12:01:55.190Z,42.30
2018-03-25T12:07:29.341Z,38.60
2018-03-25T12:10:13.058Z,38.80
2018-03-25T12:13:01.160Z,40.30
2018-03-25T12:15:49.092Z,41.30
2018-03-25T12:26:57.999Z,42.80
2018-03-25T12:32:34.262Z,43.20
2018-03-25T12:35:20.777Z,41.40
2018-03-25T12:40:35.179Z,41.10
2018-03-25T12:43:02.112Z,39.70
2018-03-25T12:45:29.023Z,40.20
2018-03-25T12:47:55.973Z,41.40
2018-03-25T12:50:22.848Z,38.90
2018-03-25T12:52:49.884Z,40.80
2018-03-25T12:55:16.772Z,41.80
2018-03-25T12:57:43.630Z,42.00
2018-03-25T13:00:10.587Z,43.40
2018-03-25T13:02:37.468Z,43.80
2018-03-25T13:05:04.448Z,42.50
2018-03-25T13:07:31.351Z,42.30
2018-03-25T13:09:58.404Z,43.30
2018-03-25T13:12:25.288Z,42.90
2018-03-25T13:14:52.165Z,45.30
2018-03-25T13:17:19.833Z,41.50
2018-03-25T13:19:46.912Z,41.40
2018-03-25T13:22:13.863Z,40.40
2018-03-25T13:24:40.808Z,41.10
2018-03-25T13:27:07.927Z,41.90
2018-03-25T13:29:34.864Z,39.80
2018-03-25T13:32:01.751Z,40.90
2018-03-25T13:37:49.758Z,40.60
2018-03-25T13:40:16.710Z,40.60
2018-03-25T13:42:44.385Z,43.10
2018-03-25T13:45:11.256Z,43.10
2018-03-25T13:47:38.168Z,43.60
2018-03-25T13:50:05.213Z,42.30
2018-03-25T13:52:50.630Z,42.50
2018-03-25T13:58:30.874Z,43.00
2018-03-25T14:01:16.542Z,40.30
2018-03-25T14:04:10.112Z,43.10
2018-03-25T14:12:31.773Z,42.90
2018-03-25T14:18:06.870Z,39.70
2018-03-25T14:20:52.103Z,39.90
2018-03-25T14:23:38.751Z,39.90
2018-03-25T14:32:04.626Z,41.70
2018-03-25T14:34:48.839Z,42.50
2018-03-25T14:48:55.824Z,43.50
2018-03-25T14:51:41.804Z,42.30
2018-03-25T14:54:31.066Z,42.90
2018-03-25T14:56:59.068Z,42.10
2018-03-25T14:59:26.943Z,41.80
2018-03-25T15:01:57.596Z,41.50
2018-03-25T15:04:25.435Z,41.40
2018-03-25T15:06:52.401Z,41.40
2018-03-25T15:15:12.024Z,41.00
2018-03-25T15:20:44.376Z,41.20
2018-03-25T15:23:28.192Z,40.80
2018-03-25T15:34:49.267Z,41.80
2018-03-25T15:48:55.576Z,41.40
2018-03-25T15:54:30.599Z,40.90
2018-03-25T16:00:03.532Z,42.60
2018-03-25T16:05:37.756Z,43.20
2018-03-25T16:14:01.633Z,44.00
2018-03-25T16:19:37.131Z,44.00
2018-03-25T16:22:25.171Z,43.80
2018-03-25T16:25:09.016Z,44.20
2018-03-25T16:27:52.105Z,43.30
2018-03-25T16:30:40.004Z,44.60
2018-03-25T16:33:23.775Z,44.80
2018-03-25T16:39:08.199Z,45.40
2018-03-25T16:41:51.365Z,45.30
2018-03-25T16:44:48.572Z,45.20
2018-03-25T16:47:34.177Z,45.10
2018-03-25T16:50:19.750Z,45.10
2018-03-25T16:53:05.635Z,46.00
2018-03-25T16:55:55.621Z,46.30
2018-03-25T16:58:45.227Z,45.80
2018-03-25T17:01:13.233Z,46.00
2018-03-25T17:03:40.139Z,45.70
2018-03-25T17:06:07.067Z,45.70
2018-03-25T17:08:34.971Z,45.90
2018-03-25T17:11:02.004Z,46.90
2018-03-25T17:13:28.892Z,46.80
2018-03-25T17:15:55.844Z,47.20
2018-03-25T17:18:22.735Z,47.10
2018-03-25T17:20:49.673Z,47.10
2018-03-25T17:23:16.627Z,47.00
2018-03-25T17:25:43.660Z,47.90
2018-03-25T17:28:10.565Z,48.70
2018-03-25T17:30:37.489Z,48.70
2018-03-25T17:33:04.466Z,49.40
2018-03-25T17:35:31.364Z,49.70
2018-03-25T17:37:58.411Z,50.30
2018-03-25T17:40:25.294Z,50.30
2018-03-25T17:42:52.242Z,51.50
2018-03-25T17:45:19.121Z,53.70
2018-03-25T17:47:46.853Z,61.70
2018-03-25T17:50:13.739Z,61.60
2018-03-25T17:52:40.839Z,67.60
2018-03-25T17:55:07.745Z,71.60
2018-03-25T17:57:34.664Z,75.30
2018-03-25T18:00:02.428Z,77.50
2018-03-25T18:02:30.112Z,78.70
2018-03-25T18:04:57.060Z,78.60
2018-03-25T18:07:23.937Z,80.60
2018-03-25T18:09:50.934Z,84.40
2018-03-25T18:12:17.902Z,85.10
2018-03-25T18:14:44.809Z,86.80
2018-03-25T18:17:33.462Z,84.90
2018-03-25T18:19:38.982Z,85.10
2018-03-25T18:22:06.008Z,87.90
2018-03-25T18:24:33.025Z,88.30
2018-03-25T18:26:59.878Z,91.40
2018-03-25T18:29:26.800Z,91.50
2018-03-25T18:31:54.492Z,91.80
2018-03-25T18:34:21.405Z,91.80
2018-03-25T18:36:48.327Z,92.80
2018-03-25T18:39:15.218Z,93.80
2018-03-25T18:41:42.191Z,94.10
2018-03-25T18:44:09.090Z,94.10
2018-03-25T18:46:36.788Z,95.10
2018-03-25T18:49:03.700Z,95.10
2018-03-25T18:51:30.751Z,96.30
2018-03-25T18:53:58.476Z,97.70
2018-03-25T18:56:25.423Z,97.70
2018-03-25T18:58:52.380Z,97.60
2018-03-25T19:01:19.451Z,97.90
2018-03-25T19:03:47.501Z,98.10
2018-03-25T19:06:15.471Z,98.20
2018-03-25T19:08:42.911Z,98.70
2018-03-25T19:11:10.163Z,99.10
2018-03-25T19:13:37.214Z,99.30
2018-03-25T19:16:04.113Z,99.50
2018-03-25T19:18:31.863Z,99.90
2018-03-25T19:20:58.761Z,99.90
2018-03-25T19:23:25.799Z,99.90
2018-03-25T19:25:52.684Z,99.90
2018-03-25T19:28:19.616Z,99.90
2018-03-25T19:30:46.527Z,99.90
2018-03-25T19:33:13.471Z,99.90
2018-03-25T19:35:40.417Z,99.90
2018-03-25T19:38:21.760Z,99.90
2018-03-25T19:41:00.162Z,99.90
2018-03-25T19:43:41.346Z,99.90
2018-03-25T19:46:22.879Z,99.90
2018-03-25T19:49:01.756Z,99.90
2018-03-25T19:51:35.535Z,99.90
2018-03-25T19:54:03.342Z,99.90
2018-03-25T19:56:30.460Z,99.90
2018-03-25T19:58:57.461Z,99.90
2018-03-25T20:01:25.124Z,99.90
2018-03-25T20:03:52.913Z,99.90
2018-03-25T20:06:19.874Z,99.90
2018-03-25T20:08:46.833Z,99.90
2018-03-25T20:11:13.816Z,99.90
2018-03-25T20:13:40.760Z,99.90
2018-03-25T20:16:07.693Z,99.90
2018-03-25T20:18:34.654Z,99.90
2018-03-25T20:21:01.597Z,99.90
2018-03-25T20:23:28.544Z,99.90
2018-03-25T20:25:55.424Z,99.90
2018-03-25T20:28:27.112Z,99.90
2018-03-25T20:31:05.040Z,99.90
2018-03-25T20:33:33.624Z,99.90
2018-03-25T20:36:00.506Z,99.90
2018-03-25T20:38:38.025Z,99.90
2018-03-25T20:41:15.390Z,99.90
2018-03-25T20:43:43.083Z,99.90
2018-03-25T20:46:21.929Z,99.90
2018-03-25T20:48:49.625Z,99.90
2018-03-25T20:51:16.531Z,99.90
2018-03-25T20:53:43.541Z,99.90
2018-03-25T20:56:10.504Z,99.90
2018-03-25T20:58:49.431Z,99.90
2018-03-25T21:01:21.703Z,99.90
2018-03-25T21:04:00.497Z,99.90
2018-03-25T21:06:39.932Z,99.90
2018-03-25T21:09:19.562Z,99.90
2018-03-25T21:11:57.663Z,99.90
2018-03-25T21:14:24.673Z,99.90
2018-03-25T21:16:51.544Z,99.90
2018-03-25T21:19:30.324Z,99.90
2018-03-25T21:22:08.641Z,99.90
2018-03-25T21:24:48.077Z,99.90
2018-03-25T21:27:16.487Z,99.90
2018-03-25T21:29:43.416Z,99.90
2018-03-25T21:32:10.373Z,99.90
2018-03-25T21:34:37.420Z,99.90
2018-03-25T21:37:15.284Z,99.90
2018-03-25T21:39:54.838Z,99.90
2018-03-25T21:42:38.248Z,99.90
2018-03-25T21:45:18.358Z,99.90
2018-03-25T21:47:57.152Z,99.90
2018-03-25T21:50:36.383Z,99.90
2018-03-25T21:53:07.901Z,99.90
2018-03-25T21:55:46.846Z,99.90
2018-03-25T21:58:22.078Z,99.90
2018-03-25T22:01:03.466Z,99.90
2018-03-25T22:03:30.893Z,99.90
2018-03-25T22:05:59.851Z,99.90
2018-03-25T22:08:26.825Z,99.90
2018-03-25T22:10:53.739Z,99.90
2018-03-25T22:13:20.751Z,99.90
2018-03-25T22:15:47.732Z,99.90
2018-03-25T22:18:14.776Z,99.90
2018-03-25T22:20:41.785Z,99.90
2018-03-25T22:23:08.664Z,99.90
2018-03-25T22:25:36.293Z,99.90
2018-03-25T22:28:03.247Z,99.90
2018-03-25T22:30:30.204Z,99.90
2018-03-25T22:32:57.144Z,99.90
2018-03-25T22:35:24.023Z,99.90
2018-03-25T22:37:50.972Z,99.90
2018-03-25T22:40:17.851Z,99.90
2018-03-25T22:42:44.801Z,99.90
2018-03-25T22:45:11.676Z,99.90
2018-03-25T22:47:38.619Z,99.90
2018-03-25T22:50:06.334Z,99.90
2018-03-25T22:52:33.321Z,99.90
2018-03-25T22:55:00.268Z,99.90
2018-03-25T22:57:27.215Z,99.90
2018-03-25T22:59:54.151Z,99.90
2018-03-25T23:02:21.142Z,99.90
2018-03-25T23:04:48.110Z,99.90
2018-03-25T23:07:15.057Z,99.90
2018-03-25T23:09:41.940Z,99.90
2018-03-25T23:12:08.945Z,99.90
2018-03-25T23:14:35.814Z,99.90
2018-03-25T23:17:02.764Z,99.90
2018-03-25T23:19:29.644Z,99.90
2018-03-25T23:21:57.345Z,99.90
2018-03-25T23:24:24.233Z,99.90
2018-03-25T23:26:51.166Z,99.90
2018-03-25T23:29:18.055Z,99.90
2018-03-25T23:31:45.015Z,99.90
2018-03-25T23:34:11.952Z,99.90
2018-03-25T23:36:38.940Z,99.90
2018-03-25T23:39:05.838Z,99.90
2018-03-25T23:41:33.559Z,99.90
2018-03-25T23:44:00.491Z,99.90
2018-03-25T23:46:27.436Z,99.90
2018-03-25T23:48:54.313Z,99.90
2018-03-25T23:51:21.265Z,99.90
2018-03-25T23:53:48.142Z,99.90
2018-03-25T23:56:15.133Z,99.90
2018-03-25T23:58:42.019Z,99.90
